createdAt,value
2022-11-05T00:02:31.194Z,96259.00
2022-11-05T00:05:16.568Z,96276.25
2022-11-05T00:08:07.836Z,96280.91
2022-11-05T00:10:38.308Z,96281.56
2022-11-05T00:13:25.729Z,96275.88
2022-11-05T00:16:11.645Z,96254.94
2022-11-05T00:18:39.641Z,96271.50
2022-11-05T00:21:28.039Z,96293.31
2022-11-05T00:24:14.623Z,96288.09
2022-11-05T00:26:42.494Z,96297.31
2022-11-05T00:29:10.154Z,96289.41
2022-11-05T00:31:37.839Z,96299.03
2022-11-05T00:34:05.682Z,96281.75
2022-11-05T00:36:33.443Z,96304.72
2022-11-05T00:39:02.637Z,96307.53
2022-11-05T00:41:30.317Z,96308.34
2022-11-05T00:44:15.507Z,96309.16
2022-11-05T00:46:43.233Z,96310.06
2022-11-05T00:49:28.610Z,96285.19
2022-11-05T00:52:17.076Z,96287.28
2022-11-05T00:54:46.273Z,96294.03
2022-11-05T00:57:13.927Z,96320.47
2022-11-05T00:59:41.636Z,96313.50
2022-11-05T01:02:09.593Z,96325.72
2022-11-05T01:04:37.388Z,96328.84
2022-11-05T01:07:05.167Z,96324.31
2022-11-05T01:09:32.881Z,96318.03
2022-11-05T01:12:01.933Z,96330.69
2022-11-05T01:14:29.683Z,96327.66
2022-11-05T01:16:57.402Z,96330.16
2022-11-05T01:19:25.085Z,96334.00
2022-11-05T01:21:52.822Z,96340.75
2022-11-05T01:24:20.507Z,96342.41
2022-11-05T01:26:48.161Z,96342.41
2022-11-05T01:29:17.255Z,96349.59
2022-11-05T01:31:45.044Z,96316.34
2022-11-05T01:34:12.902Z,96345.69
2022-11-05T01:36:40.677Z,96345.94
2022-11-05T01:39:08.354Z,96342.31
2022-11-05T01:41:36.144Z,96338.97
2022-11-05T01:44:03.931Z,96348.38
2022-11-05T01:46:37.633Z,96339.66
2022-11-05T01:49:11.601Z,96342.31
2022-11-05T01:51:40.662Z,96341.22
2022-11-05T01:54:13.402Z,96347.19
2022-11-05T01:56:45.118Z,96344.69
2022-11-05T01:59:16.113Z,96344.69
2022-11-05T02:01:45.538Z,96345.50
2022-11-05T02:04:17.983Z,96343.41
2022-11-05T02:06:47.045Z,96349.97
2022-11-05T02:09:21.779Z,96348.09
2022-11-05T02:11:50.901Z,96347.03
2022-11-05T02:14:19.313Z,96328.59
2022-11-05T02:16:54.422Z,96345.25
2022-11-05T02:19:52.835Z,96346.75
2022-11-05T02:22:43.139Z,96343.47
2022-11-05T02:25:33.754Z,96335.91
2022-11-05T02:28:25.449Z,96335.22
2022-11-05T02:31:01.039Z,96342.59
2022-11-05T02:33:37.433Z,96350.16
2022-11-05T02:36:22.130Z,96345.88
2022-11-05T02:38:57.315Z,96357.56
2022-11-05T02:41:31.598Z,96346.53
2022-11-05T02:44:10.111Z,96348.81
2022-11-05T02:46:47.908Z,96334.59
2022-11-05T02:49:27.810Z,96353.13
2022-11-05T02:51:59.234Z,96338.66
2022-11-05T02:54:34.117Z,96346.66
2022-11-05T02:57:04.682Z,96351.59
2022-11-05T02:59:32.658Z,96351.03
2022-11-05T03:02:04.244Z,96330.00
2022-11-05T03:04:33.190Z,96353.25
2022-11-05T03:07:22.252Z,96337.41
2022-11-05T03:10:10.971Z,96354.59
2022-11-05T03:12:48.511Z,96348.72
2022-11-05T03:15:27.763Z,96365.03
2022-11-05T03:18:05.488Z,96359.41
2022-11-05T03:20:38.785Z,96348.81
2022-11-05T03:23:13.007Z,96378.25
2022-11-05T03:25:46.984Z,96383.56
2022-11-05T03:28:16.139Z,96376.84
2022-11-05T03:30:45.374Z,96373.31
2022-11-05T03:33:18.860Z,96385.19
2022-11-05T03:35:52.047Z,96387.25
2022-11-05T03:38:26.236Z,96388.88
2022-11-05T03:40:58.541Z,96387.25
2022-11-05T03:43:31.378Z,96393.78
2022-11-05T03:46:03.553Z,96394.22
2022-11-05T03:48:33.833Z,96399.13
2022-11-05T03:51:07.478Z,96412.19
2022-11-05T03:53:39.212Z,96412.44
2022-11-05T03:56:11.324Z,96405.53
2022-11-05T03:58:42.824Z,96411.84
2022-11-05T04:01:10.914Z,96412.66
2022-11-05T04:03:40.110Z,96409.47
2022-11-05T04:06:27.558Z,96397.19
2022-11-05T04:09:13.075Z,96411.13
2022-11-05T04:11:58.707Z,96436.50
2022-11-05T04:14:27.101Z,96423.06
2022-11-05T04:17:09.800Z,96431.19
2022-11-05T04:19:57.915Z,96434.13
2022-11-05T04:22:44.771Z,96432.84
2022-11-05T04:25:13.546Z,96437.16
2022-11-05T04:27:41.412Z,96416.84
2022-11-05T04:30:21.547Z,96419.06
2022-11-05T04:33:04.961Z,96432.28
2022-11-05T04:35:37.198Z,96441.13
2022-11-05T04:38:05.917Z,96432.38
2022-11-05T04:40:34.433Z,96434.25
2022-11-05T04:43:02.762Z,96434.84
2022-11-05T04:45:33.110Z,96464.44
2022-11-05T04:48:01.165Z,96467.75
2022-11-05T04:50:29.429Z,96469.31
2022-11-05T04:52:58.794Z,96471.78
2022-11-05T04:55:27.197Z,96473.66
2022-11-05T04:57:56.025Z,96464.28
2022-11-05T05:00:24.969Z,96464.53
2022-11-05T05:02:53.127Z,96481.47
2022-11-05T05:05:21.961Z,96476.38
2022-11-05T05:07:49.733Z,96472.34
2022-11-05T05:10:19.568Z,96481.53
2022-11-05T05:12:48.438Z,96472.34
2022-11-05T05:15:16.348Z,96462.56
2022-11-05T05:17:44.114Z,96484.03
2022-11-05T05:20:29.311Z,96461.41
2022-11-05T05:22:57.186Z,96490.81
2022-11-05T05:25:26.382Z,96477.56
2022-11-05T05:27:54.231Z,96490.81
2022-11-05T05:30:22.059Z,96447.56
2022-11-05T05:32:49.827Z,96491.63
2022-11-05T05:35:17.834Z,96488.53
2022-11-05T05:37:45.595Z,96461.44
2022-11-05T05:40:13.473Z,96501.88
2022-11-05T05:42:43.569Z,96499.88
2022-11-05T05:45:12.516Z,96470.19
2022-11-05T05:47:40.352Z,96501.69
2022-11-05T05:50:08.533Z,96478.03
2022-11-05T05:52:36.317Z,96502.84
2022-11-05T05:55:04.080Z,96514.16
2022-11-05T05:57:31.843Z,96513.75
2022-11-05T06:00:01.946Z,96502.38
2022-11-05T06:02:31.515Z,96490.56
2022-11-05T06:04:59.450Z,96425.09
2022-11-05T06:07:27.185Z,96527.66
2022-11-05T06:09:54.979Z,96527.28
2022-11-05T06:12:22.801Z,96530.94
2022-11-05T06:14:50.635Z,96529.88
2022-11-05T06:17:19.809Z,96501.97
2022-11-05T06:19:47.852Z,96532.59
2022-11-05T06:22:16.021Z,96540.16
2022-11-05T06:24:43.794Z,96510.63
2022-11-05T06:27:11.603Z,96555.13
2022-11-05T06:29:39.579Z,96548.75
2022-11-05T06:32:07.406Z,96528.97
2022-11-05T06:34:36.904Z,96367.47
2022-11-05T06:37:04.694Z,96539.63
2022-11-05T06:39:32.382Z,96563.72
2022-11-05T06:44:48.165Z,96581.03
2022-11-05T06:47:16.074Z,96569.44
2022-11-05T06:49:45.317Z,96582.75
2022-11-05T06:52:14.050Z,96555.03
2022-11-05T06:54:42.910Z,96585.50
2022-11-05T06:57:11.631Z,96606.91
2022-11-05T06:59:40.240Z,96577.53
2022-11-05T07:02:08.700Z,96602.22
2022-11-05T07:04:36.670Z,96605.75
2022-11-05T07:07:05.795Z,96607.16
2022-11-05T07:09:33.544Z,96599.19
2022-11-05T07:12:01.350Z,96612.28
2022-11-05T07:14:29.209Z,96604.31
2022-11-05T07:16:58.209Z,96627.59
2022-11-05T07:19:25.980Z,96626.34
2022-11-05T07:21:53.844Z,96622.75
2022-11-05T07:24:23.038Z,96609.66
2022-11-05T07:26:50.774Z,96623.75
2022-11-05T07:29:18.564Z,96645.59
2022-11-05T07:31:47.320Z,96655.22
2022-11-05T07:34:15.483Z,96651.75
2022-11-05T07:36:43.260Z,96638.72
2022-11-05T07:39:11.055Z,96648.13
2022-11-05T07:41:40.438Z,96652.00
2022-11-05T07:44:08.379Z,96669.78
2022-11-05T07:46:36.122Z,96658.31
2022-11-05T07:49:04.089Z,96641.56
2022-11-05T07:51:31.873Z,96679.97
2022-11-05T07:53:59.633Z,96678.31
2022-11-05T07:56:27.436Z,96671.34
2022-11-05T07:58:56.557Z,96679.72
2022-11-05T08:01:24.648Z,96672.97
2022-11-05T08:03:52.545Z,96669.31
2022-11-05T08:06:20.428Z,96658.31
2022-11-05T08:08:48.268Z,96682.78
2022-11-05T08:11:16.061Z,96682.59
2022-11-05T08:13:44.061Z,96658.63
2022-11-05T08:16:13.258Z,96658.03
2022-11-05T08:18:41.028Z,96653.78
2022-11-05T08:21:09.553Z,96664.03
2022-11-05T08:23:38.659Z,96643.75
2022-11-05T08:26:07.009Z,96688.69
2022-11-05T08:28:34.802Z,96673.78
2022-11-05T08:31:02.595Z,96662.78
2022-11-05T08:33:33.137Z,96668.50
2022-11-05T08:36:03.918Z,96674.66
2022-11-05T08:38:31.838Z,96692.78
2022-11-05T08:41:00.488Z,96686.84
2022-11-05T08:43:30.937Z,96697.50
2022-11-05T08:46:01.206Z,96690.75
2022-11-05T08:48:28.971Z,96704.06
2022-11-05T08:51:01.264Z,96710.16
2022-11-05T08:53:29.283Z,96710.94
2022-11-05T08:55:59.235Z,96718.31
2022-11-05T08:58:27.058Z,96709.84
2022-11-05T09:00:57.830Z,96726.56
2022-11-05T09:03:28.414Z,96734.19
2022-11-05T09:05:56.113Z,96728.81
2022-11-05T09:08:25.167Z,96738.25
2022-11-05T09:10:52.863Z,96740.81
2022-11-05T09:13:20.819Z,96712.34
2022-11-05T09:15:49.134Z,96728.06
2022-11-05T09:18:18.288Z,96722.09
2022-11-05T09:20:46.076Z,96726.91
2022-11-05T09:23:15.803Z,96732.28
2022-11-05T09:25:45.488Z,96742.63
2022-11-05T09:28:17.018Z,96737.41
2022-11-05T09:30:46.743Z,96736.97
2022-11-05T09:33:14.944Z,96727.81
2022-11-05T09:35:43.670Z,96746.94
2022-11-05T09:38:11.454Z,96752.09
2022-11-05T09:40:56.629Z,96751.41
2022-11-05T09:43:31.719Z,96722.84
2022-11-05T09:46:03.349Z,96739.72
2022-11-05T09:48:34.463Z,96757.41
2022-11-05T09:51:02.416Z,96758.78
2022-11-05T09:53:30.134Z,96760.69
2022-11-05T09:56:01.566Z,96766.44
2022-11-05T09:58:39.938Z,96764.91
2022-11-05T10:01:13.410Z,96773.59
2022-11-05T10:03:46.636Z,96743.16
2022-11-05T10:06:20.644Z,96772.72
2022-11-05T10:08:52.675Z,96787.38
2022-11-05T10:11:25.983Z,96775.56
2022-11-05T10:13:57.610Z,96768.03
2022-11-05T10:16:28.410Z,96784.25
2022-11-05T10:19:02.063Z,96787.09
2022-11-05T10:21:59.395Z,96778.75
2022-11-05T10:24:19.974Z,96790.44
2022-11-05T10:26:51.587Z,96771.63
2022-11-05T10:29:26.770Z,96791.22
2022-11-05T10:31:56.028Z,96772.16
2022-11-05T10:34:26.493Z,96785.75
2022-11-05T10:36:54.502Z,96782.69
2022-11-05T10:39:23.479Z,96795.41
2022-11-05T10:42:07.942Z,96789.44
2022-11-05T10:44:40.577Z,96788.88
2022-11-05T10:47:33.597Z,96789.16
2022-11-05T10:50:02.533Z,96776.66
2022-11-05T10:52:35.243Z,96796.78
2022-11-05T10:55:06.153Z,96784.34
2022-11-05T10:57:37.902Z,96778.94
2022-11-05T11:00:28.808Z,96788.63
2022-11-05T11:02:59.614Z,96785.47
2022-11-05T11:05:30.783Z,96770.47
2022-11-05T11:08:02.291Z,96769.28
2022-11-05T11:10:33.802Z,96783.16
2022-11-05T11:13:03.321Z,96786.47
2022-11-05T11:15:35.103Z,96785.59
2022-11-05T11:18:27.031Z,96777.19
2022-11-05T11:20:54.867Z,96790.22
2022-11-05T11:23:22.671Z,96789.56
2022-11-05T11:25:53.942Z,96783.66
2022-11-05T11:28:33.917Z,96793.81
2022-11-05T11:31:06.827Z,96781.06
2022-11-05T11:33:36.014Z,96787.56
2022-11-05T11:36:04.050Z,96794.84
2022-11-05T11:38:34.491Z,96785.22
2022-11-05T11:41:13.820Z,96789.38
2022-11-05T11:43:44.135Z,96790.19
2022-11-05T11:46:16.088Z,96793.84
2022-11-05T11:48:47.441Z,96788.38
2022-11-05T11:51:32.267Z,96791.75
2022-11-05T11:54:01.828Z,96791.81
2022-11-05T11:56:30.407Z,96786.53
2022-11-05T11:59:03.973Z,96801.22
2022-11-05T12:01:55.231Z,96781.19
2022-11-05T12:04:38.507Z,96800.34
2022-11-05T12:07:15.169Z,96788.31
2022-11-05T12:09:57.187Z,96791.16
2022-11-05T12:12:33.149Z,96792.19
2022-11-05T12:15:16.433Z,96792.19
2022-11-05T12:17:52.871Z,96783.00
2022-11-05T12:20:35.002Z,96788.00
2022-11-05T12:23:23.592Z,96786.22
2022-11-05T12:26:00.443Z,96781.06
2022-11-05T12:29:04.464Z,96785.91
2022-11-05T12:31:42.455Z,96788.31
2022-11-05T12:34:26.423Z,96785.94
2022-11-05T12:37:15.581Z,96782.16
2022-11-05T12:39:50.846Z,96790.63
2022-11-05T12:42:34.875Z,96772.34
2022-11-05T12:45:08.566Z,96785.09
2022-11-05T12:47:50.433Z,96789.09
2022-11-05T12:50:26.065Z,96781.09
2022-11-05T12:53:23.196Z,96784.72
2022-11-05T12:55:52.575Z,96785.09
2022-11-05T12:58:24.823Z,96791.78
2022-11-05T13:00:58.754Z,96774.66
2022-11-05T13:03:38.763Z,96784.47
2022-11-05T13:06:10.075Z,96784.31
2022-11-05T13:08:42.380Z,96785.47
2022-11-05T13:11:18.285Z,96783.28
2022-11-05T13:13:53.095Z,96779.31
2022-11-05T13:16:26.876Z,96784.44
2022-11-05T13:19:01.326Z,96791.72
2022-11-05T13:21:31.160Z,96792.25
2022-11-05T13:24:05.154Z,96791.72
2022-11-05T13:26:40.938Z,96789.78
2022-11-05T13:29:14.886Z,96799.09
2022-11-05T13:31:46.504Z,96795.22
2022-11-05T13:34:15.588Z,96794.03
2022-11-05T13:37:15.173Z,96796.34
2022-11-05T13:39:47.046Z,96784.00
2022-11-05T13:42:45.313Z,96797.81
2022-11-05T13:45:34.800Z,96798.41
2022-11-05T13:48:38.318Z,96780.06
2022-11-05T13:51:39.302Z,96792.88
2022-11-05T13:54:46.909Z,96794.75
2022-11-05T13:57:35.917Z,96788.78
2022-11-05T14:00:12.434Z,96781.25
2022-11-05T14:02:45.108Z,96783.75
2022-11-05T14:05:25.303Z,96785.06
2022-11-05T14:07:55.633Z,96789.56
2022-11-05T14:10:32.292Z,96789.22
2022-11-05T14:13:03.532Z,96769.31
2022-11-05T14:15:32.943Z,96789.75
2022-11-05T14:18:03.088Z,96790.28
2022-11-05T14:20:57.349Z,96785.94
2022-11-05T14:23:39.162Z,96798.38
2022-11-05T14:26:19.139Z,96796.47
2022-11-05T14:29:20.323Z,96798.75
2022-11-05T14:32:12.850Z,96794.94
2022-11-05T14:34:54.803Z,96761.66
2022-11-05T14:37:28.499Z,96795.56
2022-11-05T14:40:02.816Z,96792.25
2022-11-05T14:42:32.292Z,96796.41
2022-11-05T14:45:04.457Z,96801.66
2022-11-05T14:47:33.846Z,96807.56
2022-11-05T14:50:11.554Z,96791.28
2022-11-05T14:52:41.417Z,96811.03
2022-11-05T14:55:28.156Z,96809.22
2022-11-05T14:58:12.942Z,96817.25
2022-11-05T15:00:47.943Z,96821.78
2022-11-05T15:03:41.079Z,96821.22
2022-11-05T15:06:27.630Z,96825.50
2022-11-05T15:09:04.914Z,96820.31
2022-11-05T15:11:38.934Z,96817.59
2022-11-05T15:14:17.786Z,96813.50
2022-11-05T15:16:49.939Z,96816.84
2022-11-05T15:19:18.818Z,96832.47
2022-11-05T15:21:46.872Z,96832.91
2022-11-05T15:24:17.665Z,96793.25
2022-11-05T15:26:51.070Z,96837.31
2022-11-05T15:29:21.546Z,96837.88
2022-11-05T15:31:49.974Z,96835.88
2022-11-05T15:34:20.995Z,96838.28
2022-11-05T15:36:54.907Z,96838.28
2022-11-05T15:39:30.125Z,96834.81
2022-11-05T15:42:02.342Z,96846.78
2022-11-05T15:44:32.998Z,96841.66
2022-11-05T15:47:20.123Z,96826.97
2022-11-05T15:49:50.104Z,96829.00
2022-11-05T15:52:20.668Z,96852.31
2022-11-05T15:55:07.957Z,96850.66
2022-11-05T15:57:40.298Z,96857.84
2022-11-05T16:00:17.511Z,96851.72
2022-11-05T16:02:53.582Z,96853.75
2022-11-05T16:05:22.004Z,96853.34
2022-11-05T16:07:50.153Z,96829.41
2022-11-05T16:10:20.274Z,96848.84
2022-11-05T16:12:49.530Z,96733.25
2022-11-05T16:15:24.325Z,96822.84
2022-11-05T16:17:55.979Z,96838.44
2022-11-05T16:20:34.728Z,96823.06
2022-11-05T16:23:04.870Z,96819.97
2022-11-05T16:25:43.893Z,96851.50
2022-11-05T16:28:23.518Z,96824.91
2022-11-05T16:30:56.886Z,96841.88
2022-11-05T16:33:25.868Z,96858.69
2022-11-05T16:35:53.922Z,96819.38
2022-11-05T16:38:21.999Z,96860.72
2022-11-05T16:40:50.004Z,96865.44
2022-11-05T16:43:20.266Z,96849.66
2022-11-05T16:45:49.852Z,96836.56
2022-11-05T16:48:17.731Z,96860.91
2022-11-05T16:50:46.872Z,96866.66
2022-11-05T16:53:14.940Z,96846.78
2022-11-05T16:55:44.840Z,96862.94
2022-11-05T16:58:20.655Z,96838.78
2022-11-05T17:00:51.898Z,96854.31
2022-11-05T17:03:20.207Z,96865.34
2022-11-05T17:05:48.273Z,96879.72
2022-11-05T17:08:16.155Z,96886.69
2022-11-05T17:10:44.057Z,96883.44
2022-11-05T17:13:15.268Z,96897.34
2022-11-05T17:15:44.199Z,96891.19
2022-11-05T17:18:18.185Z,96886.03
2022-11-05T17:20:48.093Z,96897.25
2022-11-05T17:23:17.506Z,96900.56
2022-11-05T17:25:47.907Z,96897.69
2022-11-05T17:28:17.245Z,96872.22
2022-11-05T17:30:51.988Z,96888.38
2022-11-05T17:33:22.616Z,96885.72
2022-11-05T17:35:50.835Z,96870.09
2022-11-05T17:38:18.987Z,96891.84
2022-11-05T17:40:47.075Z,96895.06
2022-11-05T17:43:15.953Z,96906.50
2022-11-05T17:45:45.223Z,96905.28
2022-11-05T17:48:13.368Z,96897.72
2022-11-05T17:50:43.289Z,96903.88
2022-11-05T17:53:11.641Z,96896.50
2022-11-05T17:55:41.726Z,96909.41
2022-11-05T17:58:09.612Z,96918.03
2022-11-05T18:00:37.569Z,96910.66
2022-11-05T18:03:06.177Z,96910.75
2022-11-05T18:05:35.092Z,96894.56
2022-11-05T18:08:05.023Z,96917.06
2022-11-05T18:10:33.324Z,96915.88
2022-11-05T18:13:01.018Z,96920.19
2022-11-05T18:15:28.735Z,96919.78
2022-11-05T18:17:56.439Z,96917.94
2022-11-05T18:20:24.268Z,96935.31
2022-11-05T18:22:52.544Z,96903.34
2022-11-05T18:25:21.644Z,96939.06
2022-11-05T18:27:49.308Z,96938.25
2022-11-05T18:30:17.033Z,96937.44
2022-11-05T18:32:45.368Z,96934.78
2022-11-05T18:35:14.486Z,96937.06
2022-11-05T18:37:42.368Z,96934.22
2022-11-05T18:40:11.176Z,96932.78
2022-11-05T18:42:40.427Z,96939.94
2022-11-05T18:45:09.626Z,96925.63
2022-11-05T18:47:37.565Z,96926.84
2022-11-05T18:50:06.286Z,96914.97
2022-11-05T18:52:34.024Z,96927.84
2022-11-05T18:55:01.703Z,96919.47
2022-11-05T18:57:29.434Z,96906.38
2022-11-05T18:59:58.441Z,96910.25
2022-11-05T19:02:26.673Z,96908.56
2022-11-05T19:05:26.869Z,96892.19
2022-11-05T19:07:42.223Z,96870.44
2022-11-05T19:10:10.754Z,96905.16
2022-11-05T19:12:38.488Z,96906.56
2022-11-05T19:15:09.118Z,96887.28
2022-11-05T19:17:37.341Z,96907.59
2022-11-05T19:20:06.775Z,96914.66
2022-11-05T19:22:34.498Z,96907.28
2022-11-05T19:25:02.287Z,96899.41
2022-11-05T19:27:30.254Z,96908.44
2022-11-05T19:29:58.206Z,96903.22
2022-11-05T19:32:27.684Z,96905.50
2022-11-05T19:34:55.371Z,96908.25
2022-11-05T19:37:23.125Z,96865.19
2022-11-05T19:39:50.808Z,96874.84
2022-11-05T19:42:18.675Z,96888.00
2022-11-05T19:44:46.412Z,96894.09
2022-11-05T19:47:14.132Z,96895.47
2022-11-05T19:49:43.218Z,96907.72
2022-11-05T19:52:11.003Z,96904.03
2022-11-05T19:54:38.800Z,96918.06
2022-11-05T19:57:06.696Z,96913.31
2022-11-05T19:59:34.489Z,96908.00
2022-11-05T20:02:02.300Z,96917.34
2022-11-05T20:04:30.228Z,96920.97
2022-11-05T20:06:59.763Z,96933.34
2022-11-05T20:09:27.738Z,96922.78
2022-11-05T20:11:56.287Z,96927.06
2022-11-05T20:14:25.371Z,96921.41
2022-11-05T20:16:53.664Z,96928.72
2022-11-05T20:19:23.009Z,96929.47
2022-11-05T20:21:50.986Z,96908.91
2022-11-05T20:24:25.249Z,96931.25
2022-11-05T20:26:53.819Z,96934.28
2022-11-05T20:29:22.440Z,96940.41
2022-11-05T20:31:51.157Z,96932.19
2022-11-05T20:34:19.021Z,96929.97
2022-11-05T20:36:46.823Z,96934.66
2022-11-05T20:39:14.630Z,96929.88
2022-11-05T20:41:43.855Z,96912.84
2022-11-05T20:44:11.780Z,96939.09
2022-11-05T20:46:39.797Z,96947.06
2022-11-05T20:49:07.756Z,96912.44
2022-11-05T20:51:35.681Z,96951.19
2022-11-05T20:54:03.853Z,96923.22
2022-11-05T20:56:34.709Z,96950.06
2022-11-05T20:59:04.044Z,96917.63
2022-11-05T21:01:34.174Z,96948.53
2022-11-05T21:04:02.878Z,96944.88
2022-11-05T21:06:30.937Z,96951.34
2022-11-05T21:08:58.797Z,96956.38
2022-11-05T21:11:26.490Z,96952.63
2022-11-05T21:13:54.740Z,96949.94
2022-11-05T21:16:23.846Z,96940.59
2022-11-05T21:18:51.564Z,96935.91
2022-11-05T21:21:21.416Z,96940.81
2022-11-05T21:23:49.219Z,96927.66
2022-11-05T21:26:18.646Z,96941.03
2022-11-05T21:28:46.613Z,96938.50
2022-11-05T21:31:14.476Z,96936.03
2022-11-05T21:33:43.624Z,96928.66
2022-11-05T21:36:13.948Z,96906.59
2022-11-05T21:38:42.221Z,96934.91
2022-11-05T21:41:11.607Z,96925.38
2022-11-05T21:43:41.637Z,96912.69
2022-11-05T21:46:09.681Z,96933.00
2022-11-05T21:48:37.597Z,96921.13
2022-11-05T21:51:24.291Z,96917.00
2022-11-05T21:54:09.528Z,96916.31
2022-11-05T21:56:54.920Z,96920.47
2022-11-05T21:59:50.241Z,96925.16
2022-11-05T22:02:20.572Z,96910.22
2022-11-05T22:04:50.320Z,96910.44
2022-11-05T22:07:21.774Z,96916.72
2022-11-05T22:09:49.621Z,96916.25
2022-11-05T22:12:17.471Z,96915.91
2022-11-05T22:14:45.287Z,96919.78
2022-11-05T22:17:14.170Z,96916.91
2022-11-05T22:19:41.828Z,96928.13
2022-11-05T22:22:09.788Z,96916.09
2022-11-05T22:24:39.303Z,96924.06
2022-11-05T22:27:09.153Z,96916.47
2022-11-05T22:29:37.647Z,96907.81
2022-11-05T22:32:06.469Z,96923.13
2022-11-05T22:34:34.425Z,96900.97
2022-11-05T22:37:02.137Z,96925.81
2022-11-05T22:39:29.962Z,96926.50
2022-11-05T22:42:04.230Z,96933.00
2022-11-05T22:44:35.296Z,96925.72
2022-11-05T22:47:02.968Z,96928.88
2022-11-05T22:49:30.686Z,96890.38
2022-11-05T22:51:58.438Z,96931.09
2022-11-05T22:54:26.279Z,96925.25
2022-11-05T22:56:54.100Z,96926.06
2022-11-05T22:59:23.312Z,96926.25
2022-11-05T23:01:51.103Z,96923.59
2022-11-05T23:04:18.904Z,96921.06
2022-11-05T23:07:03.977Z,96912.19
2022-11-05T23:09:51.783Z,96930.28
2022-11-05T23:12:23.436Z,96913.00
2022-11-05T23:14:53.036Z,96921.56
2022-11-05T23:17:38.409Z,96914.72
2022-11-05T23:20:25.809Z,96899.19
2022-11-05T23:23:11.050Z,96908.75
2022-11-05T23:25:38.734Z,96912.66
2022-11-05T23:28:09.781Z,96917.94
2022-11-05T23:31:04.768Z,96907.09
2022-11-05T23:33:34.295Z,96897.94
2022-11-05T23:36:19.470Z,96890.97
2022-11-05T23:38:47.540Z,96882.53
2022-11-05T23:41:32.593Z,96893.34
2022-11-05T23:44:17.860Z,96890.44
2022-11-05T23:47:04.335Z,96902.72
2022-11-05T23:49:32.103Z,96893.56
2022-11-05T23:51:59.742Z,96892.63
2022-11-05T23:54:27.495Z,96904.53
2022-11-05T23:56:55.196Z,96874.31
2022-11-05T23:59:22.942Z,96891.16
